Terminal Aerodrome Forecast
Issued by NWS Mt. Holly, NJ

Home | Current Version | Previous Version | Text Only | Print | Product List | Glossary On
Versions: 1 2 3 4 5 6 7 8 9 10 11 12 13 14 15 16 17 18 19 20 21 22 23
000
FTUS41 KPHI 030304 AAA
TAFRDG
TAF AMD
KRDG 030304Z 0303/0324 12005KT 6SM -SHRA BR BKN045
      TEMPO 0303/0304 2SM TSRA BR OVC030CB
     FM030400 03006KT 3SM SHRA BR OVC025
     FM030700 36004KT 2SM SHRA BR OVC005
     FM031200 03005KT 6SM -DZ BR OVC008
     FM031600 04006KT P6SM OVC012
     FM032100 06004KT P6SM OVC025=

USA.gov is the U.S. government's official web portal to all federal, state and local government web resources and services.